METAR Data
IDs: Format: Raw Decoded Include TAF

Data at: 0046 UTC 20 Jul 2019

METAR for:KDEH (Decorah Muni, IA, US)
Text:KDEH 200035Z AUTO 19008G16KT 10SM CLR 31/27 A2969 RMK AO2
Temperature: 31.0°C ( 88°F)
Dewpoint: 27.0°C ( 81°F) [RH = 79%]
Pressure (altimeter):29.69 inches Hg (1005.5 mb)
Winds:from the S (190 degrees) at 9 MPH (8 knots; 4.1 m/s) gusting to 18 MPH (16 knots; 8.2 m/s)
Visibility:10 or more sm (16+ km)
Ceiling:at least 12,000 feet AGL
Clouds:sky clear below 12,000 feet AGL
QC Flag:automated observation with no human augmentation